Time;durP1;ratioP1;P1;durP2;ratioP2;P2;SDS_P1;SDS_P2;PMS_P1;PMS_P2;Temp;Humidity;BMP_temperature;BMP_pressure;BME280_temperature;BME280_humidity;BME280_pressure;Samples;Min_cycle;Max_cycle;Signal;HPM_P1;HPM_P2
2023/05/06 00:01:16;;;;;;;10.87;5.10;;;;;;;6.23;100.00;101407.19;7390875;19;20455;-37
2023/05/06 00:03:48;;;;;;;10.30;4.10;;;;;;;6.17;100.00;101409.34;7395695;19;20399;-37
2023/05/06 00:06:18;;;;;;;15.53;5.60;;;;;;;6.18;100.00;101416.22;7391630;19;20495;-42
2023/05/06 00:08:48;;;;;;;13.50;4.67;;;;;;;6.18;100.00;101417.13;7395211;19;20415;-38
2023/05/06 00:11:17;;;;;;;10.83;4.03;;;;;;;6.20;100.00;101404.41;7391921;19;20798;-39
2023/05/06 00:13:47;;;;;;;9.10;4.43;;;;;;;6.18;100.00;101413.66;7395142;19;20404;-37
2023/05/06 00:16:17;;;;;;;8.50;4.60;;;;;;;6.15;100.00;101405.78;7392824;19;20446;-38
2023/05/06 00:18:49;;;;;;;8.40;4.53;;;;;;;6.12;100.00;101395.31;7394612;19;20408;-39
2023/05/06 00:21:18;;;;;;;13.83;4.70;;;;;;;6.15;100.00;101396.41;7392303;19;20435;-39
2023/05/06 00:23:48;;;;;;;10.90;4.63;;;;;;;6.16;100.00;101392.19;7394266;19;20931;-37
2023/05/06 00:26:17;;;;;;;11.17;4.63;;;;;;;6.12;100.00;101395.31;7392625;19;20438;-39
2023/05/06 00:28:47;;;;;;;7.30;3.80;;;;;;;6.10;100.00;101397.75;7396067;19;20416;-41
2023/05/06 00:31:16;;;;;;;11.30;4.47;;;;;;;6.13;100.00;101397.06;7389791;19;20431;-38
2023/05/06 00:33:48;;;;;;;9.13;4.20;;;;;;;6.16;100.00;101387.94;7394776;19;20416;-38
2023/05/06 00:36:18;;;;;;;9.57;4.03;;;;;;;6.16;100.00;101392.19;7392572;19;20457;-38
2023/05/06 00:38:47;;;;;;;10.93;4.13;;;;;;;6.14;100.00;101378.34;7394425;19;20411;-38
2023/05/06 00:41:17;;;;;;;9.50;4.90;;;;;;;6.18;100.00;101380.34;7390620;19;20809;-38
2023/05/06 00:43:47;;;;;;;11.27;4.97;;;;;;;6.11;100.00;101379.06;7396049;19;20931;-38
2023/05/06 00:46:18;;;;;;;8.90;4.47;;;;;;;6.12;100.00;101378.28;7391358;19;20431;-41
2023/05/06 00:48:51;;;;;;;8.83;4.40;;;;;;;6.15;100.00;101380.16;7394350;19;20408;-36
2023/05/06 00:51:20;;;;;;;9.97;4.33;;;;;;;6.17;100.00;101391.41;7390521;19;20486;-38
2023/05/06 00:53:50;;;;;;;14.40;4.93;;;;;;;6.16;100.00;101381.94;7394080;19;20411;-37
2023/05/06 00:56:20;;;;;;;10.37;4.60;;;;;;;6.12;100.00;101379.94;7390773;19;20443;-39
2023/05/06 00:58:50;;;;;;;9.90;4.07;;;;;;;6.12;100.00;101385.06;7395991;19;20416;-38
2023/05/06 01:01:21;;;;;;;11.07;3.90;;;;;;;6.14;100.00;101389.50;7390715;19;20445;-37
2023/05/06 01:03:57;;;;;;;14.63;4.43;;;;;;;6.13;100.00;101382.59;7395177;19;21330;-37
2023/05/06 01:06:32;;;;;;;10.10;4.90;;;;;;;6.15;100.00;101380.16;7391237;19;20431;-37
2023/05/06 01:09:09;;;;;;;8.83;4.40;;;;;;;6.15;100.00;101383.59;7393853;19;21378;-37
2023/05/06 01:11:42;;;;;;;8.93;4.53;;;;;;;6.17;100.00;101378.59;7391204;19;20442;-37
2023/05/06 01:14:19;;;;;;;11.37;4.63;;;;;;;6.22;100.00;101382.38;7394913;19;20407;-37
2023/05/06 01:16:51;;;;;;;8.43;4.50;;;;;;;6.22;100.00;101379.81;7395207;19;20451;-37
2023/05/06 01:19:36;;;;;;;9.90;4.77;;;;;;;6.28;100.00;101380.22;7394345;19;20407;-38
2023/05/06 01:22:07;;;;;;;8.53;4.30;;;;;;;6.27;100.00;101391.25;7393652;19;20447;-37
2023/05/06 01:24:41;;;;;;;20.23;8.90;;;;;;;6.31;100.00;101382.97;7392159;19;20450;-38
2023/05/06 01:27:12;;;;;;;18.93;8.10;;;;;;;6.34;100.00;101388.34;7393972;19;20953;-39
2023/05/06 01:29:44;;;;;;;6.13;4.20;;;;;;;6.37;100.00;101394.44;7390136;19;20439;-37
2023/05/06 01:32:25;;;;;;;29.13;13.40;;;;;;;6.42;100.00;101385.41;7394174;19;20409;-39
2023/05/06 01:34:58;;;;;;;16.10;6.17;;;;;;;6.40;100.00;101400.69;7389554;19;20442;-38
2023/05/06 01:37:33;;;;;;;11.17;4.97;;;;;;;6.42;100.00;101400.78;7396184;19;20407;-37
2023/05/06 01:40:06;;;;;;;11.50;5.60;;;;;;;6.39;100.00;101400.56;7389254;19;20430;-40
2023/05/06 01:42:36;;;;;;;12.80;5.80;;;;;;;6.43;100.00;101400.00;7394998;19;20413;-38
2023/05/06 01:45:07;;;;;;;7.60;4.40;;;;;;;6.45;100.00;101403.53;7388606;19;20407;-37
2023/05/06 01:47:37;;;;;;;10.17;5.30;;;;;;;6.45;100.00;101406.13;7394852;19;20407;-39
2023/05/06 01:50:08;;;;;;;13.20;5.23;;;;;;;6.46;100.00;101392.53;7388992;19;20439;-38
2023/05/06 01:52:38;;;;;;;10.63;5.60;;;;;;;6.41;100.00;101404.16;7395137;19;20412;-38
2023/05/06 01:55:11;;;;;;;16.13;7.50;;;;;;;6.43;100.00;101412.81;7389361;19;20982;-37
2023/05/06 01:57:40;;;;;;;13.40;6.40;;;;;;;6.41;100.00;101406.72;7389278;19;20415;-36
2023/05/06 02:00:11;;;;;;;17.30;8.43;;;;;;;6.45;100.00;101414.72;7388771;19;20414;-40
2023/05/06 02:02:41;;;;;;;25.67;11.80;;;;;;;6.49;100.00;101403.00;7394628;19;20408;-35
2023/05/06 02:05:11;;;;;;;16.10;7.93;;;;;;;6.47;100.00;101410.56;7388773;19;20415;-38
2023/05/06 02:07:40;;;;;;;16.03;6.33;;;;;;;6.42;100.00;101406.78;7391156;19;20408;-36
2023/05/06 02:10:13;;;;;;;8.33;5.30;;;;;;;6.44;100.00;101394.09;7384965;19;20437;-37
2023/05/06 02:12:42;;;;;;;15.67;8.60;;;;;;;6.49;100.00;101400.44;7387807;19;21442;-36
2023/05/06 02:15:13;;;;;;;10.80;6.20;;;;;;;6.43;100.00;101405.13;7385744;19;20429;-37
2023/05/06 02:17:42;;;;;;;10.60;6.07;;;;;;;6.46;100.00;101402.78;7387579;19;20391;-37
2023/05/06 02:20:12;;;;;;;16.20;7.83;;;;;;;6.47;100.00;101409.69;7385567;19;20425;-38
2023/05/06 02:22:42;;;;;;;15.40;8.80;;;;;;;6.51;100.00;101403.09;7387052;19;20396;-37
2023/05/06 02:25:14;;;;;;;54.00;26.10;;;;;;;6.65;100.00;101402.34;7384991;19;20491;-36
2023/05/06 02:27:44;;;;;;;26.20;10.30;;;;;;;6.59;100.00;101397.72;7387250;19;20830;-37
2023/05/06 02:30:14;;;;;;;17.40;9.30;;;;;;;6.64;100.00;101402.25;7383010;19;20399;-41
2023/05/06 02:32:43;;;;;;;51.57;20.90;;;;;;;6.72;100.00;101398.56;7386492;19;20407;-36
2023/05/06 02:35:13;;;;;;;26.97;11.60;;;;;;;6.72;100.00;101390.84;7383164;19;20421;-37
2023/05/06 02:37:42;;;;;;;19.53;10.33;;;;;;;6.80;100.00;101396.47;7386376;19;20388;-37
2023/05/06 02:40:15;;;;;;;23.73;8.77;;;;;;;6.80;100.00;101389.69;7383438;19;20403;-38
2023/05/06 02:42:44;;;;;;;14.17;7.70;;;;;;;6.73;100.00;101388.38;7395279;19;20764;-39
2023/05/06 02:45:14;;;;;;;24.77;9.60;;;;;;;6.74;100.00;101384.16;7390617;19;20415;-39
2023/05/06 02:47:44;;;;;;;21.50;10.63;;;;;;;6.78;100.00;101387.81;7393029;19;20730;-38
2023/05/06 02:50:14;;;;;;;16.50;8.17;;;;;;;6.72;100.00;101380.59;7391158;19;20457;-38
2023/05/06 02:52:43;;;;;;;13.30;7.27;;;;;;;6.66;100.00;101385.31;7396722;19;20407;-38
2023/05/06 02:55:15;;;;;;;11.67;6.63;;;;;;;6.76;100.00;101392.81;7391713;19;20399;-37
2023/05/06 02:57:45;;;;;;;24.83;12.20;;;;;;;6.77;100.00;101384.34;7394025;19;20399;-37
2023/05/06 03:00:15;;;;;;;10.80;6.23;;;;;;;6.74;100.00;101390.19;7387757;19;20422;-38
2023/05/06 03:02:45;;;;;;;13.23;6.67;;;;;;;6.79;100.00;101404.97;7393481;19;20403;-39
2023/05/06 03:05:14;;;;;;;13.87;6.47;;;;;;;6.78;100.00;101404.09;7391785;19;20423;-44
2023/05/06 03:07:44;;;;;;;15.00;7.13;;;;;;;6.72;100.00;101401.13;7393007;19;20762;-38
2023/05/06 03:10:16;;;;;;;13.40;7.23;;;;;;;6.75;100.00;101397.06;7388561;19;20438;-38
2023/05/06 03:12:45;;;;;;;12.47;6.07;;;;;;;6.67;100.00;101400.78;7393187;19;20384;-36
2023/05/06 03:15:15;;;;;;;11.30;5.70;;;;;;;6.63;100.00;101403.94;7391323;19;20471;-38
2023/05/06 03:17:44;;;;;;;20.17;7.67;;;;;;;6.60;100.00;101402.06;7392369;19;20750;-38
2023/05/06 03:20:15;;;;;;;11.47;6.30;;;;;;;6.69;100.00;101401.78;7389868;19;20833;-38
2023/05/06 03:24:44;;;;;;;18.80;7.30;;;;;;;6.51;100.00;101375.75;7404886;19;20486;-40
2023/05/06 03:27:12;;;;;;;12.77;6.40;;;;;;;6.48;100.00;101380.69;7423291;19;20423;-39
2023/05/06 03:29:40;;;;;;;13.80;6.20;;;;;;;6.53;100.00;101386.13;7420164;19;20852;-37
2023/05/06 03:32:09;;;;;;;19.87;9.93;;;;;;;6.54;100.00;101381.13;7422043;19;20395;-37
2023/05/06 03:34:37;;;;;;;19.53;9.53;;;;;;;6.52;100.00;101382.69;7417610;19;20398;-37
2023/05/06 03:37:05;;;;;;;14.13;7.20;;;;;;;6.49;100.00;101387.59;7417342;19;20396;-37
2023/05/06 03:39:33;;;;;;;16.23;6.37;;;;;;;6.77;100.00;101378.34;7415328;19;20416;-40
2023/05/06 03:42:05;;;;;;;56.03;28.23;;;;;;;7.51;100.00;101372.00;7264457;19;2988983;-37
2023/05/06 03:44:37;;;;;;;38.90;16.83;;;;;;;7.46;100.00;101369.16;7421290;19;20624;-39
2023/05/06 03:47:07;;;;;;;31.93;17.40;;;;;;;7.64;100.00;101358.28;7423399;19;20432;-39
2023/05/06 03:49:37;;;;;;;19.43;9.87;;;;;;;7.19;100.00;101365.69;7421542;19;20387;-36
2023/05/06 03:52:07;;;;;;;12.13;6.60;;;;;;;7.03;100.00;101374.94;7422814;19;20379;-40
2023/05/06 03:54:36;;;;;;;18.50;10.53;;;;;;;7.02;100.00;101376.63;7420558;19;20399;-38
2023/05/06 03:57:09;;;;;;;19.10;11.40;;;;;;;7.00;100.00;101377.28;7423313;19;20422;-39
2023/05/06 03:59:38;;;;;;;16.20;8.67;;;;;;;6.80;100.00;101389.69;7423735;19;20932;-38
2023/05/06 04:02:08;;;;;;;22.07;10.33;;;;;;;6.80;100.00;101388.78;7422578;19;20936;-38
2023/05/06 04:04:37;;;;;;;16.43;7.37;;;;;;;6.93;100.00;101390.50;7420067;19;20467;-39
2023/05/06 04:07:07;;;;;;;17.10;9.40;;;;;;;6.89;100.00;101387.72;7422862;19;20391;-38
2023/05/06 04:09:37;;;;;;;18.37;10.17;;;;;;;7.02;100.00;101396.25;7419349;19;20407;-38
2023/05/06 04:12:09;;;;;;;16.53;9.50;;;;;;;7.00;100.00;101397.81;7422526;19;20416;-39
2023/05/06 04:14:39;;;;;;;19.20;8.93;;;;;;;7.08;100.00;101401.78;7420221;19;20509;-41
2023/05/06 04:17:08;;;;;;;24.23;14.87;;;;;;;7.68;100.00;101391.94;7422301;19;21056;-39
2023/05/06 04:19:38;;;;;;;25.67;10.47;;;;;;;7.57;100.00;101404.13;7422003;19;20544;-38
2023/05/06 04:22:07;;;;;;;30.07;15.70;;;;;;;7.37;100.00;101409.63;7424249;19;20407;-39
2023/05/06 04:24:37;;;;;;;17.80;8.10;;;;;;;7.13;100.00;101420.94;7419394;19;20387;-39
2023/05/06 04:27:09;;;;;;;13.03;7.23;;;;;;;6.89;100.00;101428.78;7421822;19;20379;-37
2023/05/06 04:29:39;;;;;;;11.30;6.10;;;;;;;6.91;100.00;101439.16;7419645;19;20411;-37
2023/05/06 04:32:10;;;;;;;12.63;6.10;;;;;;;6.79;100.00;101441.78;7422505;19;20391;-40
2023/05/06 04:34:40;;;;;;;15.83;6.87;;;;;;;6.71;100.00;101446.38;7407794;19;20421;-39
2023/05/06 04:37:09;;;;;;;14.80;7.07;;;;;;;6.62;100.00;101451.75;7393696;19;20391;-39
2023/05/06 04:39:41;;;;;;;11.50;6.30;;;;;;;6.65;100.00;101452.78;7392553;19;20778;-38
2023/05/06 04:42:13;;;;;;;12.23;6.60;;;;;;;6.67;100.00;101451.19;7392503;19;20398;-41
2023/05/06 04:44:43;;;;;;;13.50;7.10;;;;;;;6.68;100.00;101451.31;7388547;19;20442;-40
2023/05/06 04:47:13;;;;;;;15.83;7.40;;;;;;;6.57;100.00;101458.25;7393866;19;20773;-39
2023/05/06 04:49:43;;;;;;;12.10;6.10;;;;;;;6.58;100.00;101454.91;7394199;19;21176;-41
2023/05/06 04:52:13;;;;;;;13.37;7.10;;;;;;;6.48;100.00;101458.47;7392851;19;20396;-38
2023/05/06 04:54:42;;;;;;;21.13;10.37;;;;;;;6.54;100.00;101458.03;7389996;19;20435;-35
2023/05/06 04:57:16;;;;;;;12.10;7.03;;;;;;;6.50;100.00;101460.28;7397837;19;20417;-37
2023/05/06 04:59:46;;;;;;;17.13;8.10;;;;;;;6.51;100.00;101452.69;7388014;19;20443;-35
2023/05/06 05:02:15;;;;;;;14.23;6.90;;;;;;;6.49;100.00;101451.69;7391856;19;20392;-37
2023/05/06 05:04:45;;;;;;;13.13;6.90;;;;;;;6.51;100.00;101457.81;7391254;19;20425;-35
2023/05/06 05:07:14;;;;;;;12.00;6.37;;;;;;;6.53;100.00;101463.06;7392862;19;20774;-41
2023/05/06 05:09:44;;;;;;;20.30;10.00;;;;;;;6.58;100.00;101462.59;7389409;19;20975;-37
2023/05/06 05:12:16;;;;;;;12.30;6.00;;;;;;;6.59;100.00;101461.81;7392858;19;20746;-37
2023/05/06 05:14:46;;;;;;;14.73;7.90;;;;;;;6.62;100.00;101462.03;7388559;19;20792;-37
2023/05/06 05:17:15;;;;;;;13.90;6.90;;;;;;;6.55;100.00;101459.81;7395445;19;20419;-37
2023/05/06 05:19:45;;;;;;;11.20;6.00;;;;;;;6.54;100.00;101462.25;7389740;19;20407;-36
2023/05/06 05:22:15;;;;;;;17.17;8.70;;;;;;;6.51;100.00;101465.50;7392284;19;20399;-37
2023/05/06 05:24:45;;;;;;;16.23;6.47;;;;;;;6.54;100.00;101458.03;7389252;19;20419;-41
2023/05/06 05:27:17;;;;;;;11.73;6.50;;;;;;;6.51;100.00;101468.06;7392484;19;20438;-39
2023/05/06 05:29:46;;;;;;;15.10;7.30;;;;;;;6.45;100.00;101462.50;7389336;19;20409;-39
2023/05/06 05:32:16;;;;;;;15.37;7.80;;;;;;;6.47;100.00;101464.41;7392447;19;20391;-39
2023/05/06 05:34:45;;;;;;;14.47;7.70;;;;;;;6.48;100.00;101467.88;7393545;19;20427;-41
2023/05/06 05:37:15;;;;;;;10.43;6.07;;;;;;;6.52;100.00;101469.88;7392345;19;20763;-36
2023/05/06 05:39:44;;;;;;;19.50;9.27;;;;;;;6.55;100.00;101466.59;7390393;19;20414;-38
2023/05/06 05:42:17;;;;;;;16.80;9.20;;;;;;;6.52;100.00;101468.97;7250864;19;2713157;-39
2023/05/06 05:44:46;;;;;;;16.60;8.83;;;;;;;6.50;100.00;101480.81;7388784;19;20758;-39
2023/05/06 05:47:16;;;;;;;13.60;7.17;;;;;;;6.47;100.00;101473.78;7392555;19;20757;-39
2023/05/06 05:49:46;;;;;;;13.37;7.30;;;;;;;6.49;100.00;101479.91;7389617;19;20415;-39
2023/05/06 05:52:15;;;;;;;13.73;6.87;;;;;;;6.51;100.00;101478.31;7392537;19;20388;-43
2023/05/06 05:54:45;;;;;;;21.07;7.20;;;;;;;6.47;100.00;101481.47;7389805;19;20407;-37
2023/05/06 05:57:17;;;;;;;18.20;8.60;;;;;;;6.54;100.00;101480.22;7392907;19;20387;-37
2023/05/06 05:59:46;;;;;;;9.77;6.73;;;;;;;6.53;100.00;101489.59;7390283;19;20422;-39
2023/05/06 06:02:16;;;;;;;11.20;6.70;;;;;;;6.56;100.00;101471.84;7391736;19;20388;-38
2023/05/06 06:04:46;;;;;;;14.37;7.67;;;;;;;6.51;100.00;101488.56;7391186;19;20432;-38
2023/05/06 06:07:15;;;;;;;13.63;8.17;;;;;;;6.53;100.00;101481.91;7394217;19;20386;-41
2023/05/06 06:09:45;;;;;;;16.83;9.40;;;;;;;6.55;100.00;101485.47;7388899;19;20407;-38
2023/05/06 06:12:17;;;;;;;13.10;7.30;;;;;;;6.48;100.00;101499.50;7393432;19;20394;-38
2023/05/06 06:14:47;;;;;;;15.57;8.73;;;;;;;6.46;100.00;101502.78;7390813;19;20407;-38
2023/05/06 06:17:17;;;;;;;14.97;8.20;;;;;;;6.45;100.00;101495.84;7391614;19;20406;-38
2023/05/06 06:19:49;;;;;;;15.80;8.60;;;;;;;6.47;100.00;101494.28;7389117;19;20411;-39
2023/05/06 06:22:19;;;;;;;18.53;10.60;;;;;;;6.53;100.00;101496.38;7390541;19;20950;-38
2023/05/06 06:24:48;;;;;;;12.63;7.20;;;;;;;6.56;100.00;101502.63;7385888;19;20419;-39
2023/05/06 06:27:21;;;;;;;12.57;7.20;;;;;;;6.61;100.00;101503.84;7393814;19;20383;-38
2023/05/06 06:29:50;;;;;;;12.97;7.73;;;;;;;6.56;100.00;101497.50;7388496;19;20415;-38
2023/05/06 06:32:20;;;;;;;12.83;7.80;;;;;;;6.60;100.00;101498.59;7390127;19;20395;-35
2023/05/06 06:34:49;;;;;;;19.43;10.57;;;;;;;6.60;100.00;101499.50;7387603;19;20417;-36
2023/05/06 06:37:19;;;;;;;14.40;7.73;;;;;;;6.60;100.00;101502.06;7391945;19;20392;-36
2023/05/06 06:39:48;;;;;;;13.17;7.37;;;;;;;6.66;100.00;101503.28;7388329;19;20411;-39
2023/05/06 06:42:21;;;;;;;17.40;8.43;;;;;;;6.57;100.00;101509.53;7390699;19;20936;-38
2023/05/06 06:44:50;;;;;;;14.20;8.20;;;;;;;6.58;100.00;101506.19;7384895;19;20449;-37
2023/05/06 06:47:20;;;;;;;15.93;8.27;;;;;;;6.59;100.00;101505.41;7391594;19;20392;-37
2023/05/06 06:49:49;;;;;;;17.83;7.20;;;;;;;6.64;100.00;101512.50;7387448;19;20767;-36
2023/05/06 06:52:19;;;;;;;11.20;6.47;;;;;;;6.64;100.00;101515.97;7392286;19;20416;-37
2023/05/06 06:54:48;;;;;;;10.80;7.07;;;;;;;6.60;100.00;101522.56;7384843;19;20403;-38
2023/05/06 06:57:20;;;;;;;12.63;7.70;;;;;;;6.66;100.00;101526.34;7389731;19;20392;-37
2023/05/06 06:59:51;;;;;;;12.57;7.30;;;;;;;6.54;100.00;101523.81;7389733;19;20424;-36
2023/05/06 07:02:20;;;;;;;17.10;7.57;;;;;;;6.60;100.00;101525.13;7390457;19;20413;-35
2023/05/06 07:04:51;;;;;;;11.40;6.93;;;;;;;6.69;100.00;101534.25;7387251;19;20443;-38
2023/05/06 07:07:20;;;;;;;12.50;7.10;;;;;;;6.64;100.00;101533.94;7392201;19;20388;-35
2023/05/06 07:09:50;;;;;;;13.60;7.17;;;;;;;6.66;100.00;101540.06;7387033;19;20403;-35
2023/05/06 07:12:23;;;;;;;11.40;7.33;;;;;;;6.63;100.00;101539.84;7390313;19;20422;-36
2023/05/06 07:14:53;;;;;;;13.80;7.30;;;;;;;6.67;100.00;101543.53;7386417;19;20965;-36
2023/05/06 07:17:22;;;;;;;16.07;7.63;;;;;;;6.79;100.00;101539.25;7391789;19;20403;-36
2023/05/06 07:19:52;;;;;;;14.83;7.70;;;;;;;6.78;100.00;101545.16;7386579;19;20415;-35
2023/05/06 07:22:21;;;;;;;17.90;9.57;;;;;;;6.74;100.00;101548.28;7390923;19;20455;-37
2023/05/06 07:24:51;;;;;;;15.67;6.93;;;;;;;6.75;100.00;101543.28;7388374;19;20951;-36
2023/05/06 07:27:23;;;;;;;12.50;6.27;;;;;;;6.70;100.00;101546.28;7389248;19;20391;-39
2023/05/06 07:29:53;;;;;;;12.73;6.93;;;;;;;6.83;100.00;101548.91;7386654;19;20415;-36
2023/05/06 07:32:22;;;;;;;11.10;6.40;;;;;;;6.79;100.00;101554.63;7391132;19;20403;-36
2023/05/06 07:34:52;;;;;;;12.20;6.70;;;;;;;6.85;100.00;101552.50;7385741;19;20789;-35
2023/05/06 07:37:21;;;;;;;15.17;8.43;;;;;;;6.97;100.00;101555.00;7389378;19;20383;-36
2023/05/06 07:39:51;;;;;;;11.50;6.60;;;;;;;6.96;100.00;101555.81;7385894;19;20462;-36
2023/05/06 07:42:23;;;;;;;15.27;8.53;;;;;;;6.99;100.00;101570.53;7390028;19;20398;-36
2023/05/06 07:44:53;;;;;;;11.70;7.27;;;;;;;6.96;100.00;101566.06;7385703;19;20411;-37
2023/05/06 07:47:28;;;;;;;12.73;7.23;;;;;;;7.01;100.00;101568.94;7389527;19;20406;-37
2023/05/06 07:49:58;;;;;;;9.70;6.33;;;;;;;6.93;100.00;101565.88;7387524;19;20422;-37
2023/05/06 07:52:28;;;;;;;11.77;6.33;;;;;;;7.00;100.00;101572.31;7388811;19;20388;-37
2023/05/06 07:54:58;;;;;;;12.10;7.20;;;;;;;7.00;100.00;101572.31;7385564;19;20958;-37
2023/05/06 07:57:30;;;;;;;9.93;6.53;;;;;;;7.02;100.00;101575.84;7390581;19;20402;-37
2023/05/06 08:00:00;;;;;;;13.00;6.30;;;;;;;7.00;100.00;101577.44;7386574;19;20415;-37
2023/05/06 08:02:30;;;;;;;10.30;6.50;;;;;;;7.04;100.00;101584.56;7387149;19;20392;-37
2023/05/06 08:05:00;;;;;;;12.03;7.40;;;;;;;7.07;100.00;101582.19;7384770;19;20443;-36
2023/05/06 08:07:30;;;;;;;23.17;9.63;;;;;;;7.08;100.00;101591.69;7389667;19;20391;-38
2023/05/06 08:09:59;;;;;;;18.87;9.67;;;;;;;7.09;100.00;101593.50;7382433;19;20411;-37
2023/05/06 08:12:32;;;;;;;15.07;6.67;;;;;;;7.05;100.00;101599.19;7397489;19;20798;-36
2023/05/06 08:15:01;;;;;;;11.23;6.60;;;;;;;7.11;100.00;101604.75;7393115;19;20418;-38
2023/05/06 08:17:31;;;;;;;10.57;6.60;;;;;;;7.09;100.00;101615.69;7395678;19;20399;-39
2023/05/06 08:20:00;;;;;;;11.83;6.90;;;;;;;7.08;100.00;101616.47;7394628;19;20421;-38
2023/05/06 08:22:30;;;;;;;12.00;7.00;;;;;;;7.13;100.00;101615.13;7396425;19;20452;-37
2023/05/06 08:24:59;;;;;;;8.80;6.30;;;;;;;7.13;100.00;101618.56;7397536;19;20517;-41
2023/05/06 08:27:33;;;;;;;16.00;7.33;;;;;;;7.00;100.00;101616.84;7397373;19;20418;-37
2023/05/06 08:30:02;;;;;;;10.40;6.77;;;;;;;7.04;100.00;101620.50;7396011;19;20411;-36
2023/05/06 08:32:32;;;;;;;16.37;7.40;;;;;;;7.06;100.00;101616.34;7397175;19;20423;-38
2023/05/06 08:35:02;;;;;;;12.77;8.40;;;;;;;6.99;100.00;101621.84;7394485;19;20407;-36
2023/05/06 08:37:32;;;;;;;15.83;6.83;;;;;;;7.00;100.00;101623.63;7398303;19;20416;-36
2023/05/06 08:40:01;;;;;;;14.53;7.37;;;;;;;7.00;100.00;101621.06;7395088;19;20407;-36
2023/05/06 08:42:34;;;;;;;13.20;6.90;;;;;;;6.94;100.00;101630.88;7396035;19;20420;-38
2023/05/06 08:45:04;;;;;;;12.93;7.40;;;;;;;7.00;100.00;101632.22;7394459;19;20653;-36
2023/05/06 08:47:34;;;;;;;15.07;8.33;;;;;;;7.00;100.00;101633.88;7397656;19;20407;-37
2023/05/06 08:50:03;;;;;;;12.93;6.90;;;;;;;7.06;100.00;101635.97;7394913;19;20407;-38
2023/05/06 08:52:33;;;;;;;12.23;7.37;;;;;;;7.15;100.00;101634.97;7398609;19;20537;-37
2023/05/06 08:55:04;;;;;;;16.27;8.00;;;;;;;7.18;100.00;101639.41;7395004;19;20416;-37
2023/05/06 08:57:37;;;;;;;12.43;7.43;;;;;;;7.21;100.00;101634.50;7399519;19;20392;-37
2023/05/06 09:00:09;;;;;;;16.70;9.27;;;;;;;7.22;100.00;101635.41;7393770;19;20423;-36
2023/05/06 09:02:39;;;;;;;13.10;8.50;;;;;;;7.23;100.00;101638.06;7397983;19;20778;-36
2023/05/06 09:05:12;;;;;;;13.73;8.47;;;;;;;7.30;100.00;101635.13;7394133;19;20449;-40
2023/05/06 09:07:42;;;;;;;12.30;7.83;;;;;;;7.27;100.00;101631.44;7396519;19;20408;-38
2023/05/06 09:10:16;;;;;;;10.77;6.47;;;;;;;7.29;100.00;101628.22;7393942;19;20415;-37
2023/05/06 09:12:48;;;;;;;14.93;8.30;;;;;;;7.29;100.00;101637.59;7396264;19;20795;-36
2023/05/06 09:15:18;;;;;;;16.10;8.73;;;;;;;7.41;100.00;101638.47;7394692;19;20439;-37
2023/05/06 09:17:48;;;;;;;16.37;8.43;;;;;;;7.49;100.00;101635.50;7396425;19;20762;-37
2023/05/06 09:20:17;;;;;;;17.73;7.53;;;;;;;7.48;100.00;101638.88;7394480;19;20439;-38
2023/05/06 09:22:47;;;;;;;17.40;8.40;;;;;;;7.70;100.00;101636.09;7395466;19;20786;-36
2023/05/06 09:25:17;;;;;;;12.90;7.83;;;;;;;7.79;100.00;101631.56;7393592;19;20467;-37
2023/05/06 09:27:49;;;;;;;16.10;7.37;;;;;;;7.89;100.00;101638.19;7395872;19;20408;-39
2023/05/06 09:30:19;;;;;;;10.40;6.73;;;;;;;7.75;100.00;101641.53;7394079;19;20810;-38
2023/05/06 09:32:49;;;;;;;15.10;6.47;;;;;;;7.91;100.00;101651.16;7396426;19;20424;-37
2023/05/06 09:35:18;;;;;;;11.53;6.60;;;;;;;7.97;100.00;101652.47;7391971;19;20981;-38
2023/05/06 09:37:48;;;;;;;15.50;7.47;;;;;;;7.84;100.00;101660.13;7396842;19;20412;-37
2023/05/06 09:40:18;;;;;;;12.57;7.07;;;;;;;7.93;100.00;101654.72;7393086;19;20439;-42
2023/05/06 09:42:51;;;;;;;12.20;6.33;;;;;;;7.89;100.00;101657.88;7395566;19;20431;-38
2023/05/06 09:45:20;;;;;;;13.20;6.47;;;;;;;8.03;100.00;101661.34;7390198;19;20443;-37
2023/05/06 09:47:52;;;;;;;13.87;6.63;;;;;;;8.28;100.00;101660.41;7395926;19;20429;-39
2023/05/06 09:50:23;;;;;;;9.93;5.90;;;;;;;8.07;100.00;101669.41;7390851;19;20442;-37
2023/05/06 09:52:53;;;;;;;11.40;7.20;;;;;;;8.29;100.00;101675.03;7395016;19;20451;-37
2023/05/06 09:55:25;;;;;;;9.37;6.00;;;;;;;8.20;100.00;101676.22;7389958;19;20463;-37
2023/05/06 09:57:58;;;;;;;9.73;6.70;;;;;;;8.03;100.00;101676.78;7397964;19;20479;-39
2023/05/06 10:00:28;;;;;;;17.50;9.77;;;;;;;8.11;100.00;101680.78;7391585;19;20472;-38
2023/05/06 10:02:58;;;;;;;9.10;6.50;;;;;;;8.02;100.00;101682.72;7396366;19;20879;-40
2023/05/06 10:05:29;;;;;;;13.67;7.60;;;;;;;8.07;100.00;101678.78;7393128;19;20451;-37
2023/05/06 10:07:59;;;;;;;11.33;6.40;;;;;;;8.12;100.00;101677.41;7394637;19;20428;-39
2023/05/06 10:10:30;;;;;;;11.87;6.40;;;;;;;8.21;100.00;101683.13;7391573;19;20787;-38
2023/05/06 10:13:04;;;;;;;15.17;7.30;;;;;;;8.28;100.00;101686.13;7395094;19;20821;-37
2023/05/06 10:15:34;;;;;;;12.97;6.77;;;;;;;8.33;100.00;101687.31;7392162;19;20803;-39
2023/05/06 10:18:04;;;;;;;11.13;6.50;;;;;;;8.31;100.00;101694.06;7395034;19;20444;-36
2023/05/06 10:20:35;;;;;;;11.60;6.47;;;;;;;8.37;100.00;101695.31;7390903;19;20438;-37
2023/05/06 10:23:11;;;;;;;13.63;6.57;;;;;;;8.26;100.00;101692.84;7394685;19;20469;-37
2023/05/06 10:25:43;;;;;;;11.10;6.17;;;;;;;8.28;100.00;101694.72;7390822;19;20442;-37
2023/05/06 10:28:15;;;;;;;10.37;6.20;;;;;;;8.24;100.00;101688.50;7395086;19;20419;-37
2023/05/06 10:31:00;;;;;;;11.90;6.60;;;;;;;8.33;100.00;101687.31;7392318;19;20431;-37
2023/05/06 10:33:30;;;;;;;9.77;6.13;;;;;;;8.34;100.00;101687.44;7392117;19;20519;-38
2023/05/06 10:36:09;;;;;;;16.40;9.97;;;;;;;8.32;100.00;101690.69;7390953;19;20448;-39
2023/05/06 10:38:43;;;;;;;14.63;6.80;;;;;;;8.43;100.00;101691.38;7393889;19;20454;-37
2023/05/06 10:41:14;;;;;;;11.70;6.83;;;;;;;8.29;100.00;101695.59;7389915;19;20467;-40
2023/05/06 10:43:48;;;;;;;11.43;6.00;;;;;;;8.32;100.00;101698.41;7388928;19;20463;-38
2023/05/06 10:46:18;;;;;;;9.57;6.20;;;;;;;8.51;100.00;101701.41;7388418;19;20439;-38
2023/05/06 10:49:19;;;;;;;13.00;7.17;;;;;;;8.34;100.00;101704.53;7393514;19;20407;-37
2023/05/06 10:51:49;;;;;;;11.30;6.53;;;;;;;8.18;100.00;101702.63;7393605;19;20442;-37
2023/05/06 10:54:26;;;;;;;9.57;6.20;;;;;;;8.07;100.00;101697.66;7393041;19;20994;-37
2023/05/06 10:57:11;;;;;;;11.40;6.23;;;;;;;8.00;100.00;101702.28;7393790;19;20451;-38
2023/05/06 10:59:47;;;;;;;9.03;6.23;;;;;;;7.96;100.00;101702.06;7389657;19;20407;-37
2023/05/06 11:02:20;;;;;;;11.07;6.23;;;;;;;7.95;100.00;101692.56;7394895;19;20427;-41
2023/05/06 11:04:53;;;;;;;14.20;6.97;;;;;;;7.89;100.00;101699.88;7390271;19;20419;-37
2023/05/06 11:07:24;;;;;;;12.43;6.90;;;;;;;7.87;100.00;101701.47;7392422;19;20411;-37
2023/05/06 11:09:58;;;;;;;12.83;6.57;;;;;;;7.80;100.00;101695.00;7389121;19;20452;-37
2023/05/06 11:12:47;;;;;;;12.70;6.97;;;;;;;7.75;100.00;101692.91;7391436;19;20395;-37
2023/05/06 11:15:26;;;;;;;14.90;7.10;;;;;;;7.85;100.00;101690.19;7390300;19;20471;-38
2023/05/06 11:17:57;;;;;;;13.10;7.07;;;;;;;7.87;100.00;101696.31;7393076;19;20403;-37
2023/05/06 11:20:27;;;;;;;13.70;7.23;;;;;;;8.06;100.00;101689.84;7388660;19;20438;-37
2023/05/06 11:22:57;;;;;;;11.27;7.37;;;;;;;8.27;100.00;101682.69;7392047;19;20451;-38
2023/05/06 11:25:42;;;;;;;13.30;6.97;;;;;;;8.23;100.00;101685.81;7384549;19;21046;-38
2023/05/06 11:28:13;;;;;;;13.80;7.30;;;;;;;8.27;100.00;101692.06;7394022;19;20440;-37
2023/05/06 11:30:46;;;;;;;14.87;6.80;;;;;;;8.31;100.00;101688.91;7390145;19;20439;-37
2023/05/06 11:33:20;;;;;;;11.30;6.73;;;;;;;8.29;100.00;101680.19;7393742;19;20426;-40
2023/05/06 11:35:49;;;;;;;15.27;8.10;;;;;;;8.33;100.00;101682.19;7389060;19;20460;-36